createdAt,value
2022-08-26T00:02:33.984Z,9.90
2022-08-26T00:07:27.122Z,13.30
2022-08-26T00:11:26.978Z,12.50
2022-08-26T00:12:52.613Z,14.50
2022-08-26T00:18:38.828Z,16.20
2022-08-26T00:21:33.579Z,20.10
2022-08-26T00:25:27.887Z,19.30
2022-08-26T00:26:56.913Z,19.30
2022-08-26T00:28:26.946Z,20.60
2022-08-26T00:30:54.179Z,21.00
2022-08-26T00:35:23.121Z,28.30
2022-08-26T00:38:19.539Z,23.40
2022-08-26T00:41:45.723Z,26.30
2022-08-26T00:43:15.520Z,27.40
2022-08-26T00:45:41.947Z,27.80
2022-08-26T00:47:40.545Z,27.60
2022-08-26T00:49:11.943Z,29.40
2022-08-26T00:51:07.672Z,30.90
2022-08-26T00:52:56.415Z,31.30
2022-08-26T00:58:22.451Z,31.30
2022-08-26T00:59:52.279Z,33.20
2022-08-26T01:02:26.319Z,33.10
2022-08-26T01:05:14.968Z,35.00
2022-08-26T01:07:42.758Z,32.90
2022-08-26T01:09:40.873Z,35.30
2022-08-26T01:12:29.684Z,40.60
2022-08-26T01:13:58.745Z,37.90
2022-08-26T01:17:46.075Z,37.40
2022-08-26T01:19:15.989Z,37.00
2022-08-26T01:21:14.517Z,37.00
2022-08-26T01:29:00.898Z,38.50
2022-08-26T01:32:26.259Z,37.30
2022-08-26T01:34:55.337Z,38.00
2022-08-26T01:36:53.931Z,38.90
2022-08-26T01:45:09.947Z,39.90
2022-08-26T01:50:06.545Z,40.00
2022-08-26T01:51:35.548Z,38.30
2022-08-26T01:53:24.570Z,41.00
2022-08-26T01:54:53.757Z,38.00
2022-08-26T01:56:52.031Z,37.10
2022-08-26T02:00:09.231Z,38.80
2022-08-26T02:05:04.986Z,38.80
2022-08-26T02:12:31.060Z,39.20
2022-08-26T02:18:23.669Z,40.60
2022-08-26T02:22:38.092Z,39.30
2022-08-26T02:24:07.091Z,39.80
2022-08-26T02:31:19.248Z,40.70
2022-08-26T02:32:49.586Z,41.40
2022-08-26T02:34:54.655Z,41.50
2022-08-26T02:36:23.650Z,42.40
2022-08-26T02:40:18.575Z,40.30
2022-08-26T02:43:15.021Z,38.70
2022-08-26T02:44:43.765Z,39.40
2022-08-26T02:49:29.322Z,38.40
2022-08-26T02:53:25.659Z,37.70
2022-08-26T02:55:52.446Z,39.30
2022-08-26T02:58:20.532Z,38.80
2022-08-26T03:02:43.864Z,36.90
2022-08-26T03:07:07.421Z,37.50
2022-08-26T03:12:01.941Z,36.90
2022-08-26T03:14:57.967Z,37.10
2022-08-26T03:19:42.907Z,34.20
2022-08-26T03:23:36.752Z,34.00
2022-08-26T03:25:05.816Z,33.90
2022-08-26T03:27:33.164Z,35.50
2022-08-26T03:29:02.217Z,33.50
2022-08-26T03:34:54.595Z,31.40
2022-08-26T03:45:09.346Z,32.50
2022-08-26T03:53:28.148Z,30.20
2022-08-26T04:02:34.013Z,28.00
2022-08-26T04:05:59.357Z,27.20
2022-08-26T04:09:54.109Z,25.90
2022-08-26T04:18:46.938Z,24.40
2022-08-26T04:22:10.377Z,22.30
2022-08-26T04:30:30.339Z,21.50
2022-08-26T04:33:32.406Z,20.90
2022-08-26T04:34:56.527Z,20.90
2022-08-26T04:40:18.192Z,21.00
2022-08-26T04:48:06.330Z,21.40
2022-08-26T04:51:03.353Z,21.50
2022-08-26T04:55:56.250Z,22.50
2022-08-26T05:01:16.923Z,20.80
2022-08-26T05:02:45.913Z,22.10
2022-08-26T05:07:09.833Z,20.50
2022-08-26T05:11:04.013Z,22.10
2022-08-26T05:14:29.272Z,22.10
2022-08-26T05:16:27.628Z,20.80
2022-08-26T05:24:43.692Z,20.40
2022-08-26T05:28:38.244Z,19.60
2022-08-26T05:37:24.686Z,19.30
2022-08-26T05:42:46.419Z,18.40
2022-08-26T05:47:39.326Z,18.50
2022-08-26T05:50:35.736Z,19.20
2022-08-26T05:55:58.126Z,17.70
2022-08-26T05:58:26.707Z,17.80
2022-08-26T06:05:43.804Z,18.30
2022-08-26T06:08:11.041Z,18.60
2022-08-26T06:13:11.935Z,18.20
2022-08-26T06:14:34.280Z,19.20
2022-08-26T06:16:32.533Z,18.50
2022-08-26T06:18:30.566Z,18.20
2022-08-26T06:19:59.565Z,20.30
2022-08-26T06:24:43.395Z,21.80
2022-08-26T06:26:13.549Z,19.10
2022-08-26T06:29:09.718Z,21.00
2022-08-26T06:30:39.271Z,19.60
2022-08-26T06:32:08.805Z,20.20
2022-08-26T06:36:02.896Z,20.20
2022-08-26T06:39:33.469Z,19.80
2022-08-26T06:46:22.808Z,19.40
2022-08-26T06:51:54.838Z,21.00
2022-08-26T06:53:52.891Z,19.10
2022-08-26T07:11:34.106Z,17.90
2022-08-26T07:13:03.149Z,16.90
2022-08-26T07:16:03.060Z,16.60
2022-08-26T07:17:28.466Z,16.30
2022-08-26T07:19:55.693Z,17.10
2022-08-26T07:22:34.539Z,15.80
2022-08-26T07:25:01.277Z,15.00
2022-08-26T07:26:30.369Z,15.50
2022-08-26T07:28:57.871Z,15.90
2022-08-26T07:31:25.073Z,14.20
2022-08-26T07:36:48.290Z,13.90
2022-08-26T07:38:46.229Z,13.60
2022-08-26T07:42:40.797Z,13.30
2022-08-26T07:45:08.142Z,13.60
2022-08-26T07:47:10.584Z,13.20
2022-08-26T07:49:05.302Z,13.50
2022-08-26T07:52:01.869Z,12.80
2022-08-26T07:55:27.719Z,13.50
2022-08-26T07:57:25.980Z,13.60
2022-08-26T07:59:24.279Z,11.60
2022-08-26T08:02:40.317Z,11.90
2022-08-26T08:06:27.326Z,10.90
2022-08-26T08:08:58.060Z,10.20
2022-08-26T08:12:18.947Z,9.60
2022-08-26T08:14:19.280Z,9.90
2022-08-26T08:16:17.493Z,9.00
2022-08-26T08:23:28.654Z,9.20
2022-08-26T08:28:51.173Z,7.40
2022-08-26T08:30:22.662Z,7.70
2022-08-26T08:31:56.976Z,7.80
2022-08-26T08:35:58.252Z,8.10
2022-08-26T08:38:56.348Z,7.10
2022-08-26T08:41:51.865Z,6.50
2022-08-26T08:47:34.088Z,6.60
2022-08-26T08:57:39.825Z,4.60
2022-08-26T09:01:44.952Z,4.70
2022-08-26T09:05:42.603Z,4.60
2022-08-26T09:07:39.274Z,4.80
2022-08-26T09:12:32.170Z,4.30
2022-08-26T09:16:50.692Z,4.50
2022-08-26T09:21:35.934Z,4.30
2022-08-26T09:23:02.694Z,4.20
2022-08-26T09:27:17.233Z,4.20
2022-08-26T09:30:13.931Z,4.00
2022-08-26T09:32:43.135Z,3.40
2022-08-26T09:36:03.053Z,3.90
2022-08-26T09:38:05.445Z,4.50
2022-08-26T09:42:20.042Z,3.90
2022-08-26T09:46:06.655Z,4.00
2022-08-26T09:57:12.161Z,3.30
2022-08-26T10:00:00.156Z,3.00
2022-08-26T10:12:32.223Z,3.30
2022-08-26T10:16:58.496Z,3.40
2022-08-26T10:18:28.768Z,3.80
2022-08-26T10:21:14.409Z,3.60
2022-08-26T10:26:01.072Z,4.40
2022-08-26T10:31:27.777Z,3.80
2022-08-26T10:33:20.614Z,3.90
2022-08-26T10:37:16.489Z,3.30
2022-08-26T10:43:40.832Z,4.30
2022-08-26T10:45:37.352Z,3.80
2022-08-26T10:47:06.579Z,3.80
2022-08-26T10:48:35.990Z,3.50
2022-08-26T10:53:59.260Z,4.00
2022-08-26T10:57:01.911Z,4.00
2022-08-26T10:58:30.777Z,3.40
2022-08-26T11:02:59.540Z,3.90
2022-08-26T11:04:28.610Z,3.40
2022-08-26T11:11:02.534Z,2.80
2022-08-26T11:12:30.414Z,2.90
2022-08-26T11:17:48.007Z,3.20
2022-08-26T11:19:20.938Z,3.00
2022-08-26T11:21:01.298Z,3.50
2022-08-26T11:22:30.898Z,2.50
2022-08-26T11:23:59.797Z,3.40
2022-08-26T11:27:44.090Z,2.40
2022-08-26T11:30:21.072Z,3.50
2022-08-26T11:32:31.544Z,2.70
2022-08-26T11:34:35.842Z,3.10
2022-08-26T11:37:29.591Z,2.60
2022-08-26T11:48:34.130Z,2.50
2022-08-26T11:50:32.272Z,2.20
2022-08-26T11:54:57.113Z,2.80
2022-08-26T11:59:00.184Z,2.20
2022-08-26T12:02:29.596Z,2.70
2022-08-26T12:09:33.379Z,2.70
2022-08-26T12:18:29.188Z,2.50
2022-08-26T12:20:20.972Z,2.10
2022-08-26T12:21:51.667Z,2.30
2022-08-26T12:25:48.896Z,2.40
2022-08-26T12:27:18.832Z,3.00
2022-08-26T12:31:47.975Z,1.60
2022-08-26T12:33:47.998Z,2.20
2022-08-26T12:35:45.326Z,1.80
2022-08-26T12:42:13.204Z,1.80
2022-08-26T12:44:12.336Z,2.50
2022-08-26T12:46:39.715Z,2.30
2022-08-26T12:48:09.028Z,2.50
2022-08-26T12:51:43.741Z,2.30
2022-08-26T12:54:11.715Z,2.00
2022-08-26T12:58:10.438Z,2.00
2022-08-26T12:59:39.246Z,2.00
2022-08-26T13:01:10.281Z,2.20
2022-08-26T13:03:06.724Z,2.40
2022-08-26T13:08:04.696Z,2.70
2022-08-26T13:17:50.675Z,2.00
2022-08-26T13:21:44.313Z,2.00
2022-08-26T13:23:14.332Z,1.80
2022-08-26T13:27:08.091Z,2.00
2022-08-26T13:31:31.486Z,1.90
2022-08-26T13:33:58.491Z,2.10
2022-08-26T13:36:25.747Z,1.90
2022-08-26T13:38:33.811Z,2.00
2022-08-26T13:39:54.137Z,2.00
2022-08-26T13:41:29.159Z,1.40
2022-08-26T13:43:24.943Z,2.10
2022-08-26T13:44:54.409Z,2.10
2022-08-26T13:47:22.537Z,2.00
2022-08-26T13:48:51.632Z,2.20
2022-08-26T13:51:00.888Z,2.10
2022-08-26T13:52:34.857Z,2.40
2022-08-26T13:59:47.853Z,2.00
2022-08-26T14:18:50.019Z,1.60
2022-08-26T14:23:13.978Z,2.20
2022-08-26T14:27:33.784Z,1.80
2022-08-26T14:33:53.716Z,1.70
2022-08-26T14:39:02.957Z,1.70
2022-08-26T14:41:33.392Z,2.00
2022-08-26T14:45:00.766Z,2.40
2022-08-26T14:46:30.141Z,2.10
2022-08-26T14:56:16.614Z,2.00
2022-08-26T15:03:02.444Z,1.80
2022-08-26T15:13:15.137Z,1.60
2022-08-26T15:17:10.491Z,1.80
2022-08-26T15:19:37.641Z,1.60
2022-08-26T15:21:35.772Z,1.30
2022-08-26T15:23:06.237Z,1.50
2022-08-26T15:27:29.657Z,2.40
2022-08-26T15:29:27.842Z,2.00
2022-08-26T15:30:56.891Z,2.00
2022-08-26T15:33:23.874Z,1.50
2022-08-26T15:35:22.125Z,1.90
2022-08-26T15:36:51.365Z,1.70
2022-08-26T15:41:44.274Z,1.80
2022-08-26T15:51:56.170Z,1.60
2022-08-26T16:01:44.027Z,2.00
2022-08-26T16:04:11.886Z,2.10
2022-08-26T16:07:08.405Z,1.80
2022-08-26T16:09:06.659Z,1.90
2022-08-26T16:10:35.588Z,1.60
2022-08-26T16:12:33.706Z,2.80
2022-08-26T16:24:05.755Z,1.50
2022-08-26T16:31:24.746Z,1.70
2022-08-26T16:34:21.426Z,1.30
2022-08-26T16:38:17.632Z,1.00
2022-08-26T16:50:27.498Z,1.30
2022-08-26T16:54:21.916Z,1.60
2022-08-26T16:56:49.066Z,1.20
2022-08-26T16:59:45.598Z,1.20
2022-08-26T17:01:14.571Z,1.50
2022-08-26T17:02:43.586Z,1.60
2022-08-26T17:06:38.063Z,1.40
2022-08-26T17:10:03.795Z,2.00
2022-08-26T17:17:50.898Z,1.60
2022-08-26T17:22:14.244Z,2.00
2022-08-26T17:24:12.293Z,1.60
2022-08-26T17:26:39.632Z,1.70
2022-08-26T17:30:05.110Z,1.90
2022-08-26T17:35:27.053Z,1.70
2022-08-26T17:45:40.001Z,1.40
2022-08-26T17:52:28.811Z,1.60
2022-08-26T17:56:24.139Z,1.90
2022-08-26T17:58:23.378Z,1.50
2022-08-26T17:59:50.810Z,1.50
2022-08-26T18:09:04.660Z,1.60
2022-08-26T18:13:28.648Z,1.70
2022-08-26T18:16:54.268Z,1.60
2022-08-26T18:18:52.300Z,1.90
2022-08-26T18:21:19.711Z,1.60
2022-08-26T18:23:18.486Z,1.50
2022-08-26T18:25:15.967Z,1.40
2022-08-26T18:26:45.568Z,1.50
2022-08-26T18:28:43.155Z,1.40
2022-08-26T18:30:16.289Z,1.10
2022-08-26T18:31:45.682Z,1.90
2022-08-26T18:33:43.622Z,1.40
2022-08-26T18:35:12.996Z,1.50
2022-08-26T18:39:08.991Z,1.60
2022-08-26T18:47:25.398Z,1.50
2022-08-26T18:51:48.530Z,1.40
2022-08-26T18:53:17.592Z,1.10
2022-08-26T18:57:31.784Z,1.50
2022-08-26T19:03:23.367Z,1.30
2022-08-26T19:14:07.379Z,0.90
2022-08-26T19:17:33.012Z,1.20
2022-08-26T19:19:04.753Z,1.20
2022-08-26T19:22:01.371Z,1.00
2022-08-26T19:23:31.905Z,1.30
2022-08-26T19:27:26.105Z,1.40
2022-08-26T19:39:36.916Z,1.10
2022-08-26T19:41:36.768Z,1.80
2022-08-26T19:47:25.894Z,0.80
2022-08-26T19:53:45.661Z,1.00
2022-08-26T19:59:07.530Z,1.00
2022-08-26T20:02:07.141Z,1.00
2022-08-26T20:07:00.415Z,1.20
2022-08-26T20:09:25.432Z,1.20
2022-08-26T20:13:19.556Z,2.10
2022-08-26T20:15:18.591Z,1.50
2022-08-26T20:17:16.301Z,1.60
2022-08-26T20:18:45.766Z,1.10
2022-08-26T20:20:32.865Z,1.30
2022-08-26T20:32:35.020Z,1.10
2022-08-26T20:35:56.356Z,0.90
2022-08-26T20:39:21.519Z,1.10
2022-08-26T20:41:19.501Z,1.20
2022-08-26T20:46:18.222Z,1.00
2022-08-26T20:49:31.001Z,1.20
2022-08-26T20:58:46.946Z,1.10
2022-08-26T21:04:30.987Z,1.10
2022-08-26T21:06:58.086Z,1.70
2022-08-26T21:10:53.374Z,1.20
2022-08-26T21:12:51.477Z,0.80
2022-08-26T21:19:52.989Z,1.20
2022-08-26T21:21:27.064Z,1.60
2022-08-26T21:26:35.154Z,1.30
2022-08-26T21:34:32.097Z,1.20
2022-08-26T21:36:27.776Z,1.30
2022-08-26T21:38:54.897Z,1.20
2022-08-26T21:42:22.921Z,1.20
2022-08-26T21:56:47.507Z,2.00
2022-08-26T21:58:16.044Z,1.70
2022-08-26T22:00:14.751Z,1.50
2022-08-26T22:02:13.762Z,1.50
2022-08-26T22:03:47.266Z,1.50
2022-08-26T22:05:12.963Z,1.00
2022-08-26T22:09:40.909Z,1.40
2022-08-26T22:13:04.314Z,1.10
2022-08-26T22:17:29.860Z,0.90
2022-08-26T22:22:42.733Z,1.40
2022-08-26T22:28:48.274Z,1.40
2022-08-26T22:30:47.951Z,1.10
2022-08-26T22:35:29.009Z,0.90
2022-08-26T22:40:36.569Z,1.30
2022-08-26T22:43:05.729Z,0.90
2022-08-26T22:49:02.713Z,1.10
2022-08-26T22:51:30.064Z,1.10
2022-08-26T22:57:21.083Z,0.90
2022-08-26T22:59:59.338Z,0.90
2022-08-26T23:01:57.350Z,1.40
2022-08-26T23:11:12.044Z,1.70
2022-08-26T23:13:10.121Z,1.00
2022-08-26T23:16:06.333Z,1.50
2022-08-26T23:18:33.320Z,1.30
2022-08-26T23:24:53.075Z,1.30
2022-08-26T23:28:18.578Z,1.50
2022-08-26T23:32:13.613Z,1.80
2022-08-26T23:36:07.755Z,1.10
2022-08-26T23:37:36.768Z,1.20
2022-08-26T23:39:34.762Z,1.50
2022-08-26T23:44:01.585Z,1.30
2022-08-26T23:45:57.131Z,1.20
2022-08-26T23:54:18.106Z,0.80
2022-08-26T23:56:17.326Z,1.70
2022-08-26T23:58:43.982Z,1.20
